sensor_id;sensor_type;location;lat;lon;timestamp;pressure;altitude;pressure_sealevel;temperature;humidity
73671;BME280;61968;48.178;11.566;2022-08-19T00:01:47;95305.03;;;19.10;47.93
73671;BME280;61968;48.178;11.566;2022-08-19T00:04:16;95316.28;;;18.93;48.60
73671;BME280;61968;48.178;11.566;2022-08-19T00:06:45;95328.03;;;18.97;48.39
73671;BME280;61968;48.178;11.566;2022-08-19T00:09:14;95321.88;;;19.10;47.94
73671;BME280;61968;48.178;11.566;2022-08-19T00:11:41;95317.53;;;19.14;48.04
73671;BME280;61968;48.178;11.566;2022-08-19T00:14:12;95324.69;;;19.19;48.06
73671;BME280;61968;48.178;11.566;2022-08-19T00:16:43;95322.78;;;19.19;47.86
73671;BME280;61968;48.178;11.566;2022-08-19T00:19:10;95322.31;;;19.17;47.67
73671;BME280;61968;48.178;11.566;2022-08-19T00:21:36;95302.53;;;19.13;48.14
73671;BME280;61968;48.178;11.566;2022-08-19T00:24:05;95303.88;;;19.30;47.54
73671;BME280;61968;48.178;11.566;2022-08-19T00:26:32;95294.03;;;19.39;47.35
73671;BME280;61968;48.178;11.566;2022-08-19T00:28:58;95291.56;;;19.56;47.00
73671;BME280;61968;48.178;11.566;2022-08-19T00:31:27;95284.81;;;19.59;46.76
73671;BME280;61968;48.178;11.566;2022-08-19T00:33:54;95269.25;;;19.61;46.42
73671;BME280;61968;48.178;11.566;2022-08-19T00:36:20;95267.81;;;19.77;45.99
73671;BME280;61968;48.178;11.566;2022-08-19T00:38:47;95269.22;;;19.75;46.09
73671;BME280;61968;48.178;11.566;2022-08-19T00:41:14;95271.00;;;19.24;47.40
73671;BME280;61968;48.178;11.566;2022-08-19T00:43:41;95277.13;;;19.11;47.92
73671;BME280;61968;48.178;11.566;2022-08-19T00:46:08;95278.22;;;19.10;47.96
73671;BME280;61968;48.178;11.566;2022-08-19T00:48:36;95270.97;;;18.77;48.59
73671;BME280;61968;48.178;11.566;2022-08-19T00:51:03;95265.72;;;19.19;47.45
73671;BME280;61968;48.178;11.566;2022-08-19T00:53:31;95264.94;;;19.32;47.36
73671;BME280;61968;48.178;11.566;2022-08-19T00:55:59;95256.28;;;19.35;47.04
73671;BME280;61968;48.178;11.566;2022-08-19T00:58:29;95243.00;;;19.44;46.77
73671;BME280;61968;48.178;11.566;2022-08-19T01:00:57;95250.97;;;19.63;46.73
73671;BME280;61968;48.178;11.566;2022-08-19T01:03:23;95252.16;;;19.57;46.60
73671;BME280;61968;48.178;11.566;2022-08-19T01:05:52;95255.72;;;19.52;46.77
73671;BME280;61968;48.178;11.566;2022-08-19T01:08:19;95261.06;;;19.38;47.10
73671;BME280;61968;48.178;11.566;2022-08-19T01:10:49;95258.25;;;19.02;48.14
73671;BME280;61968;48.178;11.566;2022-08-19T01:13:20;95248.47;;;19.25;47.19
73671;BME280;61968;48.178;11.566;2022-08-19T01:15:51;95236.56;;;19.45;47.06
73671;BME280;61968;48.178;11.566;2022-08-19T01:18:19;95237.66;;;19.58;46.32
73671;BME280;61968;48.178;11.566;2022-08-19T01:20:46;95253.66;;;19.49;46.45
73671;BME280;61968;48.178;11.566;2022-08-19T01:23:14;95248.19;;;19.26;47.42
73671;BME280;61968;48.178;11.566;2022-08-19T01:25:46;95244.09;;;19.43;46.99
73671;BME280;61968;48.178;11.566;2022-08-19T01:28:18;95248.53;;;19.47;47.01
73671;BME280;61968;48.178;11.566;2022-08-19T01:30:45;95245.78;;;19.53;46.35
73671;BME280;61968;48.178;11.566;2022-08-19T01:33:12;95255.72;;;19.66;46.17
73671;BME280;61968;48.178;11.566;2022-08-19T01:35:39;95262.91;;;19.57;46.54
73671;BME280;61968;48.178;11.566;2022-08-19T01:38:09;95276.88;;;19.54;46.58
73671;BME280;61968;48.178;11.566;2022-08-19T01:40:39;95270.81;;;19.20;47.58
73671;BME280;61968;48.178;11.566;2022-08-19T01:43:07;95285.66;;;19.13;47.49
73671;BME280;61968;48.178;11.566;2022-08-19T01:45:34;95281.41;;;19.25;47.37
73671;BME280;61968;48.178;11.566;2022-08-19T01:48:01;95284.19;;;19.34;47.27
73671;BME280;61968;48.178;11.566;2022-08-19T01:50:29;95295.53;;;19.45;46.63
73671;BME280;61968;48.178;11.566;2022-08-19T01:52:55;95287.69;;;19.48;46.71
73671;BME280;61968;48.178;11.566;2022-08-19T01:55:22;95286.19;;;19.15;47.58
73671;BME280;61968;48.178;11.566;2022-08-19T01:57:53;95298.47;;;19.16;47.47
73671;BME280;61968;48.178;11.566;2022-08-19T02:00:24;95293.38;;;19.00;48.09
73671;BME280;61968;48.178;11.566;2022-08-19T02:02:51;95292.34;;;18.83;48.40
73671;BME280;61968;48.178;11.566;2022-08-19T02:05:18;95291.56;;;18.82;48.54
73671;BME280;61968;48.178;11.566;2022-08-19T02:07:46;95283.44;;;18.87;47.94
73671;BME280;61968;48.178;11.566;2022-08-19T02:10:19;95285.09;;;18.83;48.37
73671;BME280;61968;48.178;11.566;2022-08-19T02:12:46;95286.44;;;18.99;48.42
73671;BME280;61968;48.178;11.566;2022-08-19T02:15:16;95292.13;;;19.12;47.63
73671;BME280;61968;48.178;11.566;2022-08-19T02:17:44;95303.75;;;19.21;47.07
73671;BME280;61968;48.178;11.566;2022-08-19T02:20:11;95310.47;;;19.04;47.61
73671;BME280;61968;48.178;11.566;2022-08-19T02:22:38;95308.75;;;18.95;48.18
73671;BME280;61968;48.178;11.566;2022-08-19T02:25:08;95311.44;;;18.95;47.95
73671;BME280;61968;48.178;11.566;2022-08-19T02:27:35;95305.88;;;18.91;47.86
73671;BME280;61968;48.178;11.566;2022-08-19T02:30:04;95312.53;;;18.75;48.36
73671;BME280;61968;48.178;11.566;2022-08-19T02:32:32;95314.72;;;18.73;48.46
73671;BME280;61968;48.178;11.566;2022-08-19T02:34:59;95318.63;;;18.62;48.76
73671;BME280;61968;48.178;11.566;2022-08-19T02:37:25;95325.84;;;18.80;48.28
73671;BME280;61968;48.178;11.566;2022-08-19T02:40:10;95318.69;;;18.94;47.96
73671;BME280;61968;48.178;11.566;2022-08-19T02:42:37;95303.78;;;19.02;47.84
73671;BME280;61968;48.178;11.566;2022-08-19T02:45:06;95297.56;;;19.07;47.16
73671;BME280;61968;48.178;11.566;2022-08-19T02:47:34;95279.22;;;19.00;47.77
73671;BME280;61968;48.178;11.566;2022-08-19T02:50:01;95271.75;;;19.11;47.47
73671;BME280;61968;48.178;11.566;2022-08-19T02:52:29;95254.69;;;19.07;47.14
73671;BME280;61968;48.178;11.566;2022-08-19T02:54:55;95248.25;;;19.08;47.19
73671;BME280;61968;48.178;11.566;2022-08-19T02:57:22;95251.34;;;19.15;47.14
73671;BME280;61968;48.178;11.566;2022-08-19T03:00:00;95254.91;;;19.24;47.13
73671;BME280;61968;48.178;11.566;2022-08-19T03:02:27;95241.03;;;19.36;46.44
73671;BME280;61968;48.178;11.566;2022-08-19T03:04:55;95240.63;;;19.42;46.29
73671;BME280;61968;48.178;11.566;2022-08-19T03:07:22;95239.00;;;19.41;46.65
73671;BME280;61968;48.178;11.566;2022-08-19T03:09:53;95246.38;;;19.36;46.33
73671;BME280;61968;48.178;11.566;2022-08-19T03:12:20;95251.06;;;19.30;46.64
73671;BME280;61968;48.178;11.566;2022-08-19T03:14:46;95267.25;;;19.39;46.50
73671;BME280;61968;48.178;11.566;2022-08-19T03:17:13;95269.09;;;19.38;46.45
73671;BME280;61968;48.178;11.566;2022-08-19T03:19:39;95259.28;;;19.34;46.62
73671;BME280;61968;48.178;11.566;2022-08-19T03:22:07;95245.38;;;19.45;46.09
73671;BME280;61968;48.178;11.566;2022-08-19T03:24:34;95257.50;;;19.43;46.30
73671;BME280;61968;48.178;11.566;2022-08-19T03:27:04;95276.88;;;19.54;46.08
73671;BME280;61968;48.178;11.566;2022-08-19T03:29:32;95292.47;;;19.52;46.03
73671;BME280;61968;48.178;11.566;2022-08-19T03:31:59;95293.22;;;19.38;46.20
73671;BME280;61968;48.178;11.566;2022-08-19T03:34:29;95298.09;;;19.36;46.39
73671;BME280;61968;48.178;11.566;2022-08-19T03:36:58;95294.72;;;19.44;46.16
73671;BME280;61968;48.178;11.566;2022-08-19T03:39:27;95289.34;;;19.44;45.90
73671;BME280;61968;48.178;11.566;2022-08-19T03:41:54;95286.41;;;19.46;46.25
73671;BME280;61968;48.178;11.566;2022-08-19T03:44:22;95273.78;;;19.19;47.00
73671;BME280;61968;48.178;11.566;2022-08-19T03:46:50;95282.31;;;19.21;46.73
73671;BME280;61968;48.178;11.566;2022-08-19T03:49:18;95282.13;;;19.31;46.65
73671;BME280;61968;48.178;11.566;2022-08-19T03:51:46;95280.53;;;19.30;46.50
73671;BME280;61968;48.178;11.566;2022-08-19T03:54:14;95277.25;;;19.33;46.58
73671;BME280;61968;48.178;11.566;2022-08-19T03:56:44;95284.19;;;19.34;46.62
73671;BME280;61968;48.178;11.566;2022-08-19T03:59:13;95286.28;;;19.37;46.46
73671;BME280;61968;48.178;11.566;2022-08-19T04:01:40;95281.16;;;19.55;46.07
73671;BME280;61968;48.178;11.566;2022-08-19T04:04:07;95280.31;;;19.40;46.43
73671;BME280;61968;48.178;11.566;2022-08-19T04:06:36;95273.88;;;19.41;46.30
73671;BME280;61968;48.178;11.566;2022-08-19T04:09:07;95275.34;;;19.47;46.33
73671;BME280;61968;48.178;11.566;2022-08-19T04:11:36;95268.22;;;19.43;46.40
73671;BME280;61968;48.178;11.566;2022-08-19T04:14:08;95270.59;;;19.44;46.49
73671;BME280;61968;48.178;11.566;2022-08-19T04:16:35;95269.44;;;19.50;46.23
73671;BME280;61968;48.178;11.566;2022-08-19T04:19:04;95261.78;;;19.58;45.82
73671;BME280;61968;48.178;11.566;2022-08-19T04:21:31;95261.78;;;19.58;46.21
73671;BME280;61968;48.178;11.566;2022-08-19T04:23:58;95272.19;;;19.45;46.12
73671;BME280;61968;48.178;11.566;2022-08-19T04:26:27;95268.81;;;19.40;46.49
73671;BME280;61968;48.178;11.566;2022-08-19T04:28:57;95263.19;;;19.55;46.28
73671;BME280;61968;48.178;11.566;2022-08-19T04:31:28;95269.53;;;19.59;46.18
73671;BME280;61968;48.178;11.566;2022-08-19T04:33:56;95280.03;;;19.42;46.59
73671;BME280;61968;48.178;11.566;2022-08-19T04:36:24;95287.81;;;19.57;46.38
73671;BME280;61968;48.178;11.566;2022-08-19T04:38:54;95292.69;;;19.55;46.35
73671;BME280;61968;48.178;11.566;2022-08-19T04:41:21;95300.56;;;19.19;47.36
73671;BME280;61968;48.178;11.566;2022-08-19T04:44:05;95298.41;;;19.21;47.30
73671;BME280;61968;48.178;11.566;2022-08-19T04:46:33;95302.06;;;19.25;47.04
73671;BME280;61968;48.178;11.566;2022-08-19T04:49:02;95300.38;;;19.29;47.21
73671;BME280;61968;48.178;11.566;2022-08-19T04:51:30;95312.97;;;19.28;47.17
73671;BME280;61968;48.178;11.566;2022-08-19T04:53:57;95315.25;;;19.35;46.76
73671;BME280;61968;48.178;11.566;2022-08-19T04:56:25;95318.44;;;19.37;46.80
73671;BME280;61968;48.178;11.566;2022-08-19T04:58:53;95324.31;;;19.39;46.67
73671;BME280;61968;48.178;11.566;2022-08-19T05:01:22;95326.25;;;19.20;47.20
73671;BME280;61968;48.178;11.566;2022-08-19T05:03:50;95333.84;;;18.99;47.87
73671;BME280;61968;48.178;11.566;2022-08-19T05:06:20;95332.84;;;19.27;47.46
73671;BME280;61968;48.178;11.566;2022-08-19T05:08:48;95337.13;;;19.42;46.97
73671;BME280;61968;48.178;11.566;2022-08-19T05:11:16;95336.97;;;19.53;46.62
73671;BME280;61968;48.178;11.566;2022-08-19T05:13:44;95338.22;;;19.41;46.66
73671;BME280;61968;48.178;11.566;2022-08-19T05:16:12;95344.88;;;19.44;46.84
73671;BME280;61968;48.178;11.566;2022-08-19T05:18:39;95336.81;;;19.44;46.33
73671;BME280;61968;48.178;11.566;2022-08-19T05:21:41;95328.78;;;19.44;46.64
73671;BME280;61968;48.178;11.566;2022-08-19T05:24:26;95324.00;;;19.41;46.71
73671;BME280;61968;48.178;11.566;2022-08-19T05:26:54;95339.13;;;19.37;46.46
73671;BME280;61968;48.178;11.566;2022-08-19T05:29:26;95333.50;;;19.19;46.88
73671;BME280;61968;48.178;11.566;2022-08-19T05:31:54;95326.78;;;19.22;46.82
73671;BME280;61968;48.178;11.566;2022-08-19T05:34:22;95328.91;;;19.39;46.67
73671;BME280;61968;48.178;11.566;2022-08-19T05:36:53;95326.84;;;19.49;46.43
73671;BME280;61968;48.178;11.566;2022-08-19T05:39:21;95323.47;;;19.58;46.15
73671;BME280;61968;48.178;11.566;2022-08-19T05:41:50;95318.69;;;19.55;46.14
73671;BME280;61968;48.178;11.566;2022-08-19T05:44:18;95324.66;;;19.52;46.23
73671;BME280;61968;48.178;11.566;2022-08-19T05:46:47;95319.34;;;19.46;46.54
73671;BME280;61968;48.178;11.566;2022-08-19T05:49:15;95319.78;;;19.67;45.95
73671;BME280;61968;48.178;11.566;2022-08-19T05:51:42;95318.59;;;19.73;45.65
73671;BME280;61968;48.178;11.566;2022-08-19T05:54:11;95321.97;;;19.79;45.39
73671;BME280;61968;48.178;11.566;2022-08-19T05:56:39;95313.69;;;19.89;45.36
73671;BME280;61968;48.178;11.566;2022-08-19T05:59:06;95314.22;;;19.91;45.25
73671;BME280;61968;48.178;11.566;2022-08-19T06:01:36;95322.03;;;20.02;45.55
73671;BME280;61968;48.178;11.566;2022-08-19T06:04:03;95324.25;;;19.86;45.38
73671;BME280;61968;48.178;11.566;2022-08-19T06:06:30;95324.66;;;19.79;45.63
73671;BME280;61968;48.178;11.566;2022-08-19T06:08:59;95322.25;;;19.78;45.82
73671;BME280;61968;48.178;11.566;2022-08-19T06:11:34;95315.56;;;19.47;46.39
73671;BME280;61968;48.178;11.566;2022-08-19T06:14:03;95323.69;;;19.28;47.08
73671;BME280;61968;48.178;11.566;2022-08-19T06:16:33;95328.06;;;19.38;46.73
73671;BME280;61968;48.178;11.566;2022-08-19T06:19:05;95335.38;;;19.52;46.23
73671;BME280;61968;48.178;11.566;2022-08-19T06:21:36;95334.69;;;19.60;46.24
73671;BME280;61968;48.178;11.566;2022-08-19T06:24:04;95332.19;;;19.77;45.93
73671;BME280;61968;48.178;11.566;2022-08-19T06:26:33;95338.88;;;19.66;46.00
73671;BME280;61968;48.178;11.566;2022-08-19T06:29:01;95331.13;;;19.78;45.76
73671;BME280;61968;48.178;11.566;2022-08-19T06:31:28;95334.00;;;19.82;45.45
73671;BME280;61968;48.178;11.566;2022-08-19T06:33:56;95332.91;;;19.83;45.57
73671;BME280;61968;48.178;11.566;2022-08-19T06:36:25;95329.31;;;19.87;45.58
73671;BME280;61968;48.178;11.566;2022-08-19T06:38:56;95327.03;;;19.94;45.32
73671;BME280;61968;48.178;11.566;2022-08-19T06:41:24;95335.38;;;19.65;45.75
73671;BME280;61968;48.178;11.566;2022-08-19T06:43:52;95329.78;;;19.48;46.03
73671;BME280;61968;48.178;11.566;2022-08-19T06:46:18;95335.38;;;19.52;46.45
73671;BME280;61968;48.178;11.566;2022-08-19T06:48:46;95334.84;;;19.36;46.87
73671;BME280;61968;48.178;11.566;2022-08-19T06:51:14;95338.41;;;19.31;46.69
73671;BME280;61968;48.178;11.566;2022-08-19T06:53:43;95336.22;;;19.33;46.84
73671;BME280;61968;48.178;11.566;2022-08-19T06:56:11;95336.94;;;19.39;47.06
73671;BME280;61968;48.178;11.566;2022-08-19T06:58:38;95336.50;;;19.32;47.12
73671;BME280;61968;48.178;11.566;2022-08-19T07:01:06;95329.84;;;19.29;46.84
73671;BME280;61968;48.178;11.566;2022-08-19T07:03:35;95331.03;;;19.23;47.16
73671;BME280;61968;48.178;11.566;2022-08-19T07:06:02;95330.03;;;19.19;47.34
73671;BME280;61968;48.178;11.566;2022-08-19T07:08:29;95322.50;;;19.21;47.41
73671;BME280;61968;48.178;11.566;2022-08-19T07:10:56;95322.59;;;19.16;47.87
73671;BME280;61968;48.178;11.566;2022-08-19T07:13:23;95330.59;;;19.02;48.27
73671;BME280;61968;48.178;11.566;2022-08-19T07:15:50;95323.47;;;19.11;48.17
73671;BME280;61968;48.178;11.566;2022-08-19T07:18:19;95321.94;;;19.24;48.06
73671;BME280;61968;48.178;11.566;2022-08-19T07:20:46;95314.97;;;19.37;47.76
73671;BME280;61968;48.178;11.566;2022-08-19T07:23:13;95307.69;;;19.10;47.93
73671;BME280;61968;48.178;11.566;2022-08-19T07:25:40;95299.66;;;19.10;48.27
73671;BME280;61968;48.178;11.566;2022-08-19T07:28:08;95297.50;;;19.12;47.94
73671;BME280;61968;48.178;11.566;2022-08-19T07:30:37;95289.84;;;19.19;47.96
73671;BME280;61968;48.178;11.566;2022-08-19T07:33:06;95291.03;;;19.13;48.32
73671;BME280;61968;48.178;11.566;2022-08-19T07:35:33;95292.50;;;19.05;48.92
73671;BME280;61968;48.178;11.566;2022-08-19T07:38:00;95279.00;;;18.96;48.60
73671;BME280;61968;48.178;11.566;2022-08-19T07:40:29;95285.16;;;18.78;49.22
73671;BME280;61968;48.178;11.566;2022-08-19T07:42:56;95284.94;;;18.61;50.02
73671;BME280;61968;48.178;11.566;2022-08-19T07:45:22;95284.88;;;18.79;49.27
73671;BME280;61968;48.178;11.566;2022-08-19T07:47:49;95293.56;;;18.71;49.60
73671;BME280;61968;48.178;11.566;2022-08-19T07:50:16;95296.56;;;18.70;49.71
73671;BME280;61968;48.178;11.566;2022-08-19T07:52:45;95299.00;;;18.85;49.59
73671;BME280;61968;48.178;11.566;2022-08-19T07:55:12;95296.66;;;18.97;48.81
73671;BME280;61968;48.178;11.566;2022-08-19T07:57:38;95301.34;;;19.06;48.94
73671;BME280;61968;48.178;11.566;2022-08-19T08:00:06;95302.59;;;18.94;49.36
73671;BME280;61968;48.178;11.566;2022-08-19T08:02:33;95306.00;;;19.14;48.83
73671;BME280;61968;48.178;11.566;2022-08-19T08:04:59;95314.63;;;19.11;48.84
73671;BME280;61968;48.178;11.566;2022-08-19T08:07:45;95316.03;;;19.08;48.95
73671;BME280;61968;48.178;11.566;2022-08-19T08:10:29;95315.06;;;19.18;48.33
73671;BME280;61968;48.178;11.566;2022-08-19T08:12:56;95306.72;;;19.06;48.69
73671;BME280;61968;48.178;11.566;2022-08-19T08:15:22;95311.75;;;18.93;48.79
73671;BME280;61968;48.178;11.566;2022-08-19T08:17:49;95303.72;;;19.07;48.84
73671;BME280;61968;48.178;11.566;2022-08-19T08:20:16;95312.66;;;19.16;48.74
73671;BME280;61968;48.178;11.566;2022-08-19T08:22:45;95315.53;;;19.20;48.47
73671;BME280;61968;48.178;11.566;2022-08-19T08:25:29;95321.03;;;19.28;48.36
73671;BME280;61968;48.178;11.566;2022-08-19T08:27:57;95321.13;;;19.37;48.31
73671;BME280;61968;48.178;11.566;2022-08-19T08:30:27;95321.06;;;19.42;48.21
73671;BME280;61968;48.178;11.566;2022-08-19T08:32:54;95318.38;;;19.42;48.05
73671;BME280;61968;48.178;11.566;2022-08-19T08:35:22;95327.41;;;19.33;48.23
73671;BME280;61968;48.178;11.566;2022-08-19T08:37:52;95331.25;;;19.40;48.18
73671;BME280;61968;48.178;11.566;2022-08-19T08:40:23;95327.81;;;19.54;47.76
73671;BME280;61968;48.178;11.566;2022-08-19T08:42:56;95329.03;;;19.61;47.44
73671;BME280;61968;48.178;11.566;2022-08-19T08:45:26;95333.50;;;19.66;46.97
73671;BME280;61968;48.178;11.566;2022-08-19T08:47:56;95339.13;;;19.50;46.89
73671;BME280;61968;48.178;11.566;2022-08-19T08:50:29;95338.72;;;19.43;47.00
73671;BME280;61968;48.178;11.566;2022-08-19T08:52:59;95339.81;;;19.42;47.41
73671;BME280;61968;48.178;11.566;2022-08-19T08:55:27;95345.06;;;19.34;48.09
73671;BME280;61968;48.178;11.566;2022-08-19T08:57:59;95345.06;;;19.34;47.86
73671;BME280;61968;48.178;11.566;2022-08-19T09:00:28;95337.22;;;19.23;49.01
73671;BME280;61968;48.178;11.566;2022-08-19T09:02:57;95345.41;;;18.99;49.84
73671;BME280;61968;48.178;11.566;2022-08-19T09:05:30;95348.53;;;18.88;50.34
73671;BME280;61968;48.178;11.566;2022-08-19T09:08:06;95352.63;;;18.80;50.38
73671;BME280;61968;48.178;11.566;2022-08-19T09:10:38;95351.63;;;18.95;50.03
73671;BME280;61968;48.178;11.566;2022-08-19T09:13:14;95357.28;;;18.93;50.07
73671;BME280;61968;48.178;11.566;2022-08-19T09:15:45;95353.31;;;18.91;49.77
73671;BME280;61968;48.178;11.566;2022-08-19T09:18:14;95354.09;;;18.91;49.89
73671;BME280;61968;48.178;11.566;2022-08-19T09:20:41;95356.78;;;19.05;49.35
73671;BME280;61968;48.178;11.566;2022-08-19T09:23:09;95351.94;;;18.93;50.21
73671;BME280;61968;48.178;11.566;2022-08-19T09:25:36;95357.56;;;18.92;50.31
73671;BME280;61968;48.178;11.566;2022-08-19T09:28:06;95350.91;;;18.89;50.08
73671;BME280;61968;48.178;11.566;2022-08-19T09:30:38;95351.84;;;18.79;50.81
73671;BME280;61968;48.178;11.566;2022-08-19T09:33:06;95363.34;;;18.80;50.47
73671;BME280;61968;48.178;11.566;2022-08-19T09:35:32;95356.00;;;19.04;49.68
73671;BME280;61968;48.178;11.566;2022-08-19T09:38:00;95354.38;;;18.90;50.48
73671;BME280;61968;48.178;11.566;2022-08-19T09:40:29;95359.53;;;18.86;50.14
73671;BME280;61968;48.178;11.566;2022-08-19T09:42:56;95355.19;;;18.90;50.28
73671;BME280;61968;48.178;11.566;2022-08-19T09:45:28;95357.56;;;18.92;49.92
73671;BME280;61968;48.178;11.566;2022-08-19T09:47:54;95350.50;;;18.82;50.52
73671;BME280;61968;48.178;11.566;2022-08-19T09:50:24;95344.53;;;18.85;50.35
73671;BME280;61968;48.178;11.566;2022-08-19T09:52:51;95344.53;;;18.85;50.59
73671;BME280;61968;48.178;11.566;2022-08-19T09:55:23;95342.16;;;18.46;51.74
73671;BME280;61968;48.178;11.566;2022-08-19T09:57:53;95344.63;;;18.42;51.95
73671;BME280;61968;48.178;11.566;2022-08-19T10:00:19;95340.25;;;18.65;51.81
73671;BME280;61968;48.178;11.566;2022-08-19T10:02:46;95348.50;;;18.69;51.44
73671;BME280;61968;48.178;11.566;2022-08-19T10:05:13;95353.09;;;18.87;51.22
73671;BME280;61968;48.178;11.566;2022-08-19T10:07:57;95351.75;;;19.03;50.97
73671;BME280;61968;48.178;11.566;2022-08-19T10:10:26;95357.09;;;19.03;51.01
73671;BME280;61968;48.178;11.566;2022-08-19T10:12:54;95364.16;;;19.13;51.30
73671;BME280;61968;48.178;11.566;2022-08-19T10:15:21;95358.22;;;18.65;52.41
73671;BME280;61968;48.178;11.566;2022-08-19T10:17:47;95367.78;;;18.52;53.10
73671;BME280;61968;48.178;11.566;2022-08-19T10:20:14;95365.38;;;18.50;54.02
73671;BME280;61968;48.178;11.566;2022-08-19T10:22:40;95357.94;;;18.66;53.30
73671;BME280;61968;48.178;11.566;2022-08-19T10:25:08;95350.19;;;18.65;53.64
73671;BME280;61968;48.178;11.566;2022-08-19T10:27:35;95351.03;;;18.79;53.09
73671;BME280;61968;48.178;11.566;2022-08-19T10:30:05;95355.16;;;18.71;52.71
73671;BME280;61968;48.178;11.566;2022-08-19T10:32:32;95359.16;;;18.74;52.69
73671;BME280;61968;48.178;11.566;2022-08-19T10:34:59;95354.00;;;18.77;52.18
73671;BME280;61968;48.178;11.566;2022-08-19T10:37:25;95353.00;;;18.92;52.56
73671;BME280;61968;48.178;11.566;2022-08-19T10:39:52;95345.75;;;18.93;51.61
73671;BME280;61968;48.178;11.566;2022-08-19T10:42:19;95349.69;;;19.14;51.84
73671;BME280;61968;48.178;11.566;2022-08-19T10:44:46;95345.66;;;19.31;51.06
73671;BME280;61968;48.178;11.566;2022-08-19T10:47:14;95342.50;;;19.42;50.74
73671;BME280;61968;48.178;11.566;2022-08-19T10:49:41;95345.44;;;19.60;50.35
73671;BME280;61968;48.178;11.566;2022-08-19T10:52:21;95352.31;;;19.33;50.82
73671;BME280;61968;48.178;11.566;2022-08-19T10:55:00;95358.16;;;19.35;50.51
73671;BME280;61968;48.178;11.566;2022-08-19T10:57:44;95352.41;;;19.28;50.75
73671;BME280;61968;48.178;11.566;2022-08-19T11:00:12;95351.47;;;19.52;49.91
73671;BME280;61968;48.178;11.566;2022-08-19T11:02:40;95353.06;;;19.66;49.64
73671;BME280;61968;48.178;11.566;2022-08-19T11:05:08;95348.94;;;19.27;50.40
73671;BME280;61968;48.178;11.566;2022-08-19T11:07:36;95343.97;;;19.21;50.27
73671;BME280;61968;48.178;11.566;2022-08-19T11:10:03;95339.38;;;19.21;50.31
73671;BME280;61968;48.178;11.566;2022-08-19T11:12:30;95340.25;;;19.49;49.75
73671;BME280;61968;48.178;11.566;2022-08-19T11:14:58;95336.19;;;19.66;49.49
73671;BME280;61968;48.178;11.566;2022-08-19T11:17:24;95332.44;;;19.34;49.77
73671;BME280;61968;48.178;11.566;2022-08-19T11:19:52;95321.69;;;19.07;50.17
73671;BME280;61968;48.178;11.566;2022-08-19T11:22:19;95321.94;;;19.38;49.69
73671;BME280;61968;48.178;11.566;2022-08-19T11:24:45;95315.88;;;19.46;49.87
73671;BME280;61968;48.178;11.566;2022-08-19T11:27:11;95322.47;;;19.54;49.39
73671;BME280;61968;48.178;11.566;2022-08-19T11:29:39;95331.56;;;19.39;48.81
73671;BME280;61968;48.178;11.566;2022-08-19T11:32:08;95335.72;;;19.31;49.79
73671;BME280;61968;48.178;11.566;2022-08-19T11:34:35;95331.31;;;19.68;49.15
73671;BME280;61968;48.178;11.566;2022-08-19T11:37:03;95333.81;;;19.78;48.43
73671;BME280;61968;48.178;11.566;2022-08-19T11:39:32;95338.56;;;19.67;47.31
73671;BME280;61968;48.178;11.566;2022-08-19T11:42:00;95338.00;;;19.38;48.40
73671;BME280;61968;48.178;11.566;2022-08-19T11:44:27;95337.28;;;19.51;48.21
73671;BME280;61968;48.178;11.566;2022-08-19T11:46:56;95339.22;;;19.45;48.80
73671;BME280;61968;48.178;11.566;2022-08-19T11:49:22;95329.06;;;19.15;49.48
73671;BME280;61968;48.178;11.566;2022-08-19T11:51:49;95327.41;;;19.33;49.30
73671;BME280;61968;48.178;11.566;2022-08-19T11:54:17;95330.94;;;18.81;49.25
73671;BME280;61968;48.178;11.566;2022-08-19T11:56:44;95333.31;;;18.83;49.95
73671;BME280;61968;48.178;11.566;2022-08-19T11:59:13;95337.22;;;18.72;50.51
73671;BME280;61968;48.178;11.566;2022-08-19T12:01:39;95343.63;;;19.09;49.80
73671;BME280;61968;48.178;11.566;2022-08-19T12:04:07;95335.47;;;19.14;49.14
73671;BME280;61968;48.178;11.566;2022-08-19T12:06:37;95343.69;;;19.36;48.82
73671;BME280;61968;48.178;11.566;2022-08-19T12:09:06;95345.03;;;19.20;48.93
73671;BME280;61968;48.178;11.566;2022-08-19T12:11:35;95344.69;;;18.94;49.17
73671;BME280;61968;48.178;11.566;2022-08-19T12:14:03;95342.34;;;19.20;49.30
73671;BME280;61968;48.178;11.566;2022-08-19T12:16:30;95343.84;;;19.12;49.23
73671;BME280;61968;48.178;11.566;2022-08-19T12:18:57;95343.41;;;19.05;49.57
73671;BME280;61968;48.178;11.566;2022-08-19T12:21:29;95343.69;;;19.36;49.03
73671;BME280;61968;48.178;11.566;2022-08-19T12:23:57;95359.06;;;19.31;49.18
73671;BME280;61968;48.178;11.566;2022-08-19T12:26:25;95359.97;;;19.40;48.77
73671;BME280;61968;48.178;11.566;2022-08-19T12:28:54;95370.03;;;19.62;48.42
73671;BME280;61968;48.178;11.566;2022-08-19T12:31:21;95366.47;;;19.80;48.01
73671;BME280;61968;48.178;11.566;2022-08-19T12:33:47;95366.06;;;20.01;47.40
73671;BME280;61968;48.178;11.566;2022-08-19T12:36:15;95359.41;;;19.70;47.81
73671;BME280;61968;48.178;11.566;2022-08-19T12:38:43;95354.47;;;19.64;48.12
73671;BME280;61968;48.178;11.566;2022-08-19T12:41:11;95358.13;;;19.82;47.46
73671;BME280;61968;48.178;11.566;2022-08-19T12:43:38;95358.81;;;19.73;47.66
73671;BME280;61968;48.178;11.566;2022-08-19T12:46:07;95360.91;;;19.90;47.52
73671;BME280;61968;48.178;11.566;2022-08-19T12:48:34;95369.94;;;19.94;46.79
73671;BME280;61968;48.178;11.566;2022-08-19T12:51:06;95361.69;;;20.05;46.75
73671;BME280;61968;48.178;11.566;2022-08-19T12:53:33;95367.38;;;20.17;46.50
73671;BME280;61968;48.178;11.566;2022-08-19T12:55:59;95368.19;;;20.17;45.78
73671;BME280;61968;48.178;11.566;2022-08-19T12:58:26;95381.09;;;20.15;45.97